Barrington, Rhode Island
Current Conditions -  °F | °C
As of 2:51 PM on Friday 24 Oct 2014 (Local Time) from KPVD Reporting Station
Overcast Overcast  
Wind Chill: 54°   Ceiling: 2500
Heat Index: 54°   Visibility: 10mi
Dew Point: 44°   Wind: 13mph
Humidity: 69%   Direction: 300°WNW
Pressure: 29.7"   Gusts: NA
Location:  41.74°N, 71.31°W
Report Text: KPVD 241851Z 30011KT 10SM OVC025 12/07 A2970 RMK AO2 SLP056 T01220067
Loading
Personal Weather Stations






























Interactive Weather Map
Tropical Storm Tracking
New forecast layout! Learn more

10-Day Weather Forecast

Advertisements
Track Severe Weather on mobile